Time,TemperatureF,DewpointF,PressureIn,WindDirection,WindDirectionDegrees,WindSpeedMPH,WindSpeedGustMPH,Humidity,HourlyPrecipIn,Conditions,Clouds,dailyrainin,SoftwareType,DateUTC
2013-10-25 00:06:00,38.7,32.0,29.84,West,265,14.0,-999.0,78,-99.99,,,0.00,weatherlink.com 1.10,2013-10-25 04:06:00,
2013-10-25 00:22:00,38.4,32.0,29.84,WNW,282,3.0,-999.0,79,-99.99,,,0.00,weatherlink.com 1.10,2013-10-25 04:22:00,
2013-10-25 00:37:00,38.0,32.0,29.84,WSW,253,4.0,-999.0,80,-99.99,,,0.00,weatherlink.com 1.10,2013-10-25 04:37:00,
2013-10-25 00:52:00,38.3,33.0,29.85,WSW,248,6.0,-999.0,80,-99.99,,,0.00,weatherlink.com 1.10,2013-10-25 04:52:00,
2013-10-25 01:07:00,38.3,32.0,29.85,West,272,6.0,-999.0,79,-99.99,,,0.00,weatherlink.com 1.10,2013-10-25 05:07:00,
2013-10-25 01:22:00,38.1,32.0,29.85,NW,306,9.0,-999.0,80,-99.99,,,0.00,weatherlink.com 1.10,2013-10-25 05:22:00,
2013-10-25 01:37:00,38.0,32.0,29.85,WSW,248,6.0,-999.0,80,-99.99,,,0.00,weatherlink.com 1.10,2013-10-25 05:37:00,
2013-10-25 01:52:00,37.8,32.0,29.86,West,269,6.0,-999.0,80,-99.99,,,0.00,weatherlink.com 1.10,2013-10-25 05:52:00,
2013-10-25 02:07:00,37.3,32.0,29.87,WNW,290,6.0,-999.0,81,-99.99,,,0.00,weatherlink.com 1.10,2013-10-25 06:07:00,
2013-10-25 02:22:00,36.9,32.0,29.87,West,269,7.0,-999.0,82,-99.99,,,0.00,weatherlink.com 1.10,2013-10-25 06:22:00,
2013-10-25 02:37:00,36.5,32.0,29.87,West,260,2.0,-999.0,82,-99.99,,,0.00,weatherlink.com 1.10,2013-10-25 06:37:00,
2013-10-25 02:52:00,36.2,32.0,29.87,West,279,2.0,-999.0,83,-99.99,,,0.00,weatherlink.com 1.10,2013-10-25 06:52:00,
2013-10-25 03:07:00,35.9,32.0,29.88,WSW,256,4.0,-999.0,84,-99.99,,,0.00,weatherlink.com 1.10,2013-10-25 07:07:00,
2013-10-25 03:22:00,35.8,31.0,29.87,WSW,251,0.0,-999.0,84,-99.99,,,0.00,weatherlink.com 1.10,2013-10-25 07:22:00,
2013-10-25 03:37:00,35.7,32.0,29.87,West,265,7.0,-999.0,85,-99.99,,,0.00,weatherlink.com 1.10,2013-10-25 07:37:00,
2013-10-25 03:52:00,35.6,32.0,29.87,WNW,290,6.0,-999.0,85,-99.99,,,0.00,weatherlink.com 1.10,2013-10-25 07:52:00,
2013-10-25 04:07:00,35.3,31.0,29.88,WNW,286,5.0,-999.0,85,-99.99,,,0.00,weatherlink.com 1.10,2013-10-25 08:07:00,
2013-10-25 04:22:00,35.2,31.0,29.88,WNW,287,4.0,-999.0,84,-99.99,,,0.00,weatherlink.com 1.10,2013-10-25 08:22:00,
2013-10-25 04:37:00,35.1,31.0,29.89,NW,326,4.0,-999.0,84,-99.99,,,0.00,weatherlink.com 1.10,2013-10-25 08:37:00,
2013-10-25 04:52:00,34.6,31.0,29.89,NW,305,1.0,-999.0,85,-99.99,,,0.00,weatherlink.com 1.10,2013-10-25 08:52:00,
2013-10-25 05:07:00,34.6,31.0,29.90,West,268,3.0,-999.0,85,-99.99,,,0.00,weatherlink.com 1.10,2013-10-25 09:07:00,
2013-10-25 05:22:00,34.8,31.0,29.90,NW,307,4.0,-999.0,85,-99.99,,,0.00,weatherlink.com 1.10,2013-10-25 09:22:00,
2013-10-25 05:37:00,34.6,31.0,29.91,WNW,298,3.0,-999.0,85,-99.99,,,0.00,weatherlink.com 1.10,2013-10-25 09:37:00,
2013-10-25 05:52:00,34.4,31.0,29.91,WNW,296,3.0,-999.0,86,-99.99,,,0.00,weatherlink.com 1.10,2013-10-25 09:52:00,
2013-10-25 06:07:00,34.6,31.0,29.91,WNW,291,1.0,-999.0,86,-99.99,,,0.00,weatherlink.com 1.10,2013-10-25 10:07:00,
2013-10-25 06:22:00,34.5,31.0,29.92,WNW,295,2.0,-999.0,86,-99.99,,,0.00,weatherlink.com 1.10,2013-10-25 10:22:00,
2013-10-25 06:37:00,34.1,31.0,29.92,WNW,285,0.0,-999.0,87,-99.99,,,0.00,weatherlink.com 1.10,2013-10-25 10:37:00,
2013-10-25 06:52:00,33.6,30.0,29.93,WNW,296,1.0,-999.0,88,-99.99,,,0.00,weatherlink.com 1.10,2013-10-25 10:52:00,
2013-10-25 07:07:00,33.3,30.0,29.93,WNW,296,1.0,-999.0,88,-99.99,,,0.00,weatherlink.com 1.10,2013-10-25 11:07:00,
2013-10-25 07:22:00,33.0,30.0,29.94,NW,306,0.0,-999.0,89,-99.99,,,0.00,weatherlink.com 1.10,2013-10-25 11:22:00,
2013-10-25 07:37:00,33.7,31.0,29.94,WNW,292,0.0,-999.0,88,-99.99,,,0.00,weatherlink.com 1.10,2013-10-25 11:37:00,
2013-10-25 07:52:00,34.2,31.0,29.95,NW,315,4.0,-999.0,87,-99.99,,,0.00,weatherlink.com 1.10,2013-10-25 11:52:00,
2013-10-25 08:07:00,35.5,31.0,29.96,WSW,244,2.0,-999.0,84,-99.99,,,0.00,weatherlink.com 1.10,2013-10-25 12:07:00,
2013-10-25 08:22:00,36.3,32.0,29.96,NW,325,3.0,-999.0,83,-99.99,,,0.00,weatherlink.com 1.10,2013-10-25 12:22:00,
2013-10-25 08:37:00,36.7,31.0,29.97,West,260,3.0,-999.0,81,-99.99,,,0.00,weatherlink.com 1.10,2013-10-25 12:37:00,
2013-10-25 08:52:00,36.4,30.0,29.97,NW,304,3.0,-999.0,77,-99.99,,,0.00,weatherlink.com 1.10,2013-10-25 12:52:00,
2013-10-25 09:07:00,36.5,29.0,29.98,North,355,7.0,-999.0,75,-99.99,,,0.00,weatherlink.com 1.10,2013-10-25 13:07:00,
2013-10-25 09:22:00,37.1,29.0,29.98,NNW,340,10.0,-999.0,73,-99.99,,,0.00,weatherlink.com 1.10,2013-10-25 13:22:00,
2013-10-25 09:37:00,37.8,29.0,29.98,WNW,294,15.0,-999.0,71,-99.99,,,0.00,weatherlink.com 1.10,2013-10-25 13:37:00,
2013-10-25 09:52:00,37.7,29.0,29.98,NW,311,3.0,-999.0,70,-99.99,,,0.00,weatherlink.com 1.10,2013-10-25 13:52:00,
2013-10-25 10:07:00,37.7,29.0,29.98,NNW,329,6.0,-999.0,71,-99.99,,,0.00,weatherlink.com 1.10,2013-10-25 14:07:00,
2013-10-25 10:23:00,37.7,28.0,29.99,NW,309,9.0,-999.0,68,-99.99,,,0.00,weatherlink.com 1.10,2013-10-25 14:23:00,
2013-10-25 10:38:00,38.3,28.0,29.99,NW,309,3.0,-999.0,67,-99.99,,,0.00,weatherlink.com 1.10,2013-10-25 14:38:00,
2013-10-25 10:53:00,38.4,27.0,29.99,NW,306,9.0,-999.0,64,-99.99,,,0.00,weatherlink.com 1.10,2013-10-25 14:53:00,
2013-10-25 11:08:00,39.1,27.0,29.99,ENE,75,6.0,-999.0,62,-99.99,,,0.00,weatherlink.com 1.10,2013-10-25 15:08:00,
2013-10-25 11:23:00,38.7,27.0,29.99,NW,314,9.0,-999.0,62,-99.99,,,0.00,weatherlink.com 1.10,2013-10-25 15:23:00,
2013-10-25 11:38:00,39.3,28.0,29.99,NNW,336,4.0,-999.0,63,-99.99,,,0.00,weatherlink.com 1.10,2013-10-25 15:38:00,
2013-10-25 11:53:00,39.4,28.0,29.99,WNW,283,5.0,-999.0,63,-99.99,,,0.00,weatherlink.com 1.10,2013-10-25 15:53:00,
2013-10-25 12:08:00,39.5,26.0,29.99,WNW,293,11.0,-999.0,60,-99.99,,,0.00,weatherlink.com 1.10,2013-10-25 16:08:00,
2013-10-25 12:38:00,40.7,28.0,30.00,WNW,302,9.0,-999.0,60,-99.99,,,0.00,weatherlink.com 1.10,2013-10-25 16:38:00,
2013-10-25 12:53:00,40.7,27.0,29.99,NW,323,10.0,-999.0,59,-99.99,,,0.00,weatherlink.com 1.10,2013-10-25 16:53:00,
2013-10-25 13:08:00,40.8,28.0,29.99,NW,311,14.0,-999.0,60,-99.99,,,0.00,weatherlink.com 1.10,2013-10-25 17:08:00,
2013-10-25 13:23:00,40.7,27.0,29.98,NNW,348,6.0,-999.0,58,-99.99,,,0.00,weatherlink.com 1.10,2013-10-25 17:23:00,
2013-10-25 13:38:00,42.0,28.0,29.98,WNW,292,10.0,-999.0,57,-99.99,,,0.00,weatherlink.com 1.10,2013-10-25 17:38:00,
2013-10-25 13:53:00,42.5,27.0,29.98,West,263,7.0,-999.0,55,-99.99,,,0.00,weatherlink.com 1.10,2013-10-25 17:53:00,
2013-10-25 14:08:00,42.4,28.0,29.98,NW,306,11.0,-999.0,56,-99.99,,,0.00,weatherlink.com 1.10,2013-10-25 18:08:00,
2013-10-25 14:23:00,42.0,27.0,29.99,WSW,257,9.0,-999.0,55,-99.99,,,0.00,weatherlink.com 1.10,2013-10-25 18:23:00,
2013-10-25 14:38:00,41.5,27.0,29.98,WNW,284,9.0,-999.0,56,-99.99,,,0.00,weatherlink.com 1.10,2013-10-25 18:38:00,
2013-10-25 14:53:00,42.9,27.0,29.98,NW,321,5.0,-999.0,54,-99.99,,,0.00,weatherlink.com 1.10,2013-10-25 18:53:00,
2013-10-25 15:08:00,43.2,28.0,29.99,NW,321,6.0,-999.0,55,-99.99,,,0.00,weatherlink.com 1.10,2013-10-25 19:08:00,
2013-10-25 15:23:00,44.9,28.0,29.99,NW,322,6.0,-999.0,51,-99.99,,,0.00,weatherlink.com 1.10,2013-10-25 19:23:00,
2013-10-25 15:38:00,43.4,27.0,29.99,West,271,10.0,-999.0,52,-99.99,,,0.00,weatherlink.com 1.10,2013-10-25 19:38:00,
2013-10-25 15:53:00,43.3,27.0,30.00,NW,304,5.0,-999.0,52,-99.99,,,0.00,weatherlink.com 1.10,2013-10-25 19:53:00,
2013-10-25 16:08:00,43.2,26.0,30.00,NW,305,3.0,-999.0,52,-99.99,,,0.00,weatherlink.com 1.10,2013-10-25 20:08:00,
2013-10-25 16:23:00,43.7,27.0,30.00,West,276,5.0,-999.0,52,-99.99,,,0.00,weatherlink.com 1.10,2013-10-25 20:23:00,
2013-10-25 16:38:00,42.5,26.0,30.00,WNW,288,12.0,-999.0,52,-99.99,,,0.00,weatherlink.com 1.10,2013-10-25 20:38:00,
2013-10-25 16:53:00,42.1,26.0,30.01,WNW,287,7.0,-999.0,53,-99.99,,,0.00,weatherlink.com 1.10,2013-10-25 20:53:00,
2013-10-25 17:08:00,41.6,26.0,30.02,West,269,3.0,-999.0,54,-99.99,,,0.00,weatherlink.com 1.10,2013-10-25 21:08:00,
2013-10-25 17:23:00,40.8,26.0,30.02,West,259,5.0,-999.0,55,-99.99,,,0.00,weatherlink.com 1.10,2013-10-25 21:23:00,
2013-10-25 17:38:00,39.5,25.0,30.03,NW,306,7.0,-999.0,57,-99.99,,,0.00,weatherlink.com 1.10,2013-10-25 21:38:00,
2013-10-25 17:53:00,39.0,26.0,30.04,WNW,295,4.0,-999.0,59,-99.99,,,0.00,weatherlink.com 1.10,2013-10-25 21:53:00,
2013-10-25 18:08:00,38.6,26.0,30.04,WNW,283,4.0,-999.0,60,-99.99,,,0.00,weatherlink.com 1.10,2013-10-25 22:08:00,
2013-10-25 18:23:00,38.3,26.0,30.05,NW,322,2.0,-999.0,61,-99.99,,,0.00,weatherlink.com 1.10,2013-10-25 22:23:00,
2013-10-25 18:38:00,37.8,26.0,30.06,WNW,284,1.0,-999.0,62,-99.99,,,0.00,weatherlink.com 1.10,2013-10-25 22:38:00,
2013-10-25 18:53:00,38.1,26.0,30.06,WNW,299,6.0,-999.0,62,-99.99,,,0.00,weatherlink.com 1.10,2013-10-25 22:53:00,
2013-10-25 19:08:00,37.6,26.0,30.06,WNW,288,3.0,-999.0,63,-99.99,,,0.00,weatherlink.com 1.10,2013-10-25 23:08:00,
2013-10-25 19:23:00,37.6,26.0,30.07,West,273,4.0,-999.0,63,-99.99,,,0.00,weatherlink.com 1.10,2013-10-25 23:23:00,
2013-10-25 19:38:00,37.2,26.0,30.07,WNW,296,2.0,-999.0,64,-99.99,,,0.00,weatherlink.com 1.10,2013-10-25 23:38:00,
2013-10-25 19:53:00,36.9,26.0,30.07,West,259,3.0,-999.0,65,-99.99,,,0.00,weatherlink.com 1.10,2013-10-25 23:53:00,
2013-10-25 20:08:00,36.7,26.0,30.08,WNW,298,1.0,-999.0,66,-99.99,,,0.00,weatherlink.com 1.10,2013-10-26 00:08:00,
2013-10-25 20:23:00,36.2,26.0,30.07,NW,312,2.0,-999.0,67,-99.99,,,0.00,weatherlink.com 1.10,2013-10-26 00:23:00,
2013-10-25 20:38:00,35.8,26.0,30.08,NW,313,0.0,-999.0,67,-99.99,,,0.00,weatherlink.com 1.10,2013-10-26 00:38:00,
2013-10-25 20:53:00,35.1,26.0,30.08,NW,313,0.0,-999.0,70,-99.99,,,0.00,weatherlink.com 1.10,2013-10-26 00:53:00,
2013-10-25 21:08:00,33.9,25.0,30.08,NW,313,0.0,-999.0,71,-99.99,,,0.00,weatherlink.com 1.10,2013-10-26 01:08:00,
2013-10-25 21:23:00,32.7,26.0,30.09,NW,313,0.0,-999.0,75,-99.99,,,0.00,weatherlink.com 1.10,2013-10-26 01:23:00,
2013-10-25 21:38:00,31.5,25.0,30.10,NW,313,0.0,-999.0,78,-99.99,,,0.00,weatherlink.com 1.10,2013-10-26 01:38:00,
2013-10-25 21:53:00,30.9,25.0,30.10,NW,313,2.0,-999.0,80,-99.99,,,0.00,weatherlink.com 1.10,2013-10-26 01:53:00,
2013-10-25 22:08:00,30.1,25.0,30.10,NW,313,1.0,-999.0,82,-99.99,,,0.00,weatherlink.com 1.10,2013-10-26 02:08:00,
2013-10-25 22:23:00,29.7,25.0,30.11,NW,313,0.0,-999.0,83,-99.99,,,0.00,weatherlink.com 1.10,2013-10-26 02:23:00,
2013-10-25 22:38:00,30.5,26.0,30.11,NW,313,0.0,-999.0,84,-99.99,,,0.00,weatherlink.com 1.10,2013-10-26 02:38:00,
2013-10-25 22:53:00,32.3,27.0,30.10,SW,228,3.0,-999.0,80,-99.99,,,0.00,weatherlink.com 1.10,2013-10-26 02:53:00,
2013-10-25 23:08:00,32.8,27.0,30.10,SW,229,3.0,-999.0,80,-99.99,,,0.00,weatherlink.com 1.10,2013-10-26 03:08:00,
2013-10-25 23:23:00,33.8,28.0,30.10,SSW,200,2.0,-999.0,79,-99.99,,,0.00,weatherlink.com 1.10,2013-10-26 03:23:00,
2013-10-25 23:39:00,34.1,29.0,30.09,West,265,1.0,-999.0,80,-99.99,,,0.00,weatherlink.com 1.10,2013-10-26 03:39:00,
2013-10-25 23:53:00,34.4,29.0,30.09,WSW,257,3.0,-999.0,79,-99.99,,,0.00,weatherlink.com 1.10,2013-10-26 03:53:00,